Time;durP1;ratioP1;P1;durP2;ratioP2;P2;SDS_P1;SDS_P2;PMS_P1;PMS_P2;Temp;Humidity;BMP_temperature;BMP_pressure;BME280_temperature;BME280_humidity;BME280_pressure;Samples;Min_cycle;Max_cycle;Signal;HPM_P1;HPM_P2
2020/12/31 00:01:24;;;;;;;22.25;17.48;;;3.30;94.40;;;;;;5079109;28;20043;-56
2020/12/31 00:03:50;;;;;;;28.58;19.55;;;3.30;94.40;;;;;;5076673;28;20107;-56
2020/12/31 00:06:16;;;;;;;22.08;17.88;;;3.40;94.40;;;;;;5078191;28;20056;-56
2020/12/31 00:08:42;;;;;;;22.45;18.80;;;3.30;94.40;;;;;;5076222;28;20039;-56
2020/12/31 00:11:08;;;;;;;20.58;18.38;;;3.30;94.40;;;;;;5077785;28;20629;-56
2020/12/31 00:13:34;;;;;;;23.92;19.42;;;3.20;94.30;;;;;;5073012;28;20098;-56
2020/12/31 00:16:00;;;;;;;25.25;19.73;;;3.40;94.40;;;;;;5073677;28;20036;-56
2020/12/31 00:18:26;;;;;;;22.80;19.30;;;3.20;94.40;;;;;;5076732;28;20043;-56
2020/12/31 00:20:52;;;;;;;23.55;19.13;;;3.20;94.40;;;;;;5079286;28;20032;-56
2020/12/31 00:23:17;;;;;;;25.85;19.38;;;3.20;94.40;;;;;;5076407;28;20429;-56
2020/12/31 00:25:52;;;;;;;22.25;19.73;;;3.30;94.50;;;;;;5073258;28;20064;-56
2020/12/31 00:28:19;;;;;;;26.58;19.85;;;3.30;94.50;;;;;;5084276;28;20059;-56
2020/12/31 00:30:45;;;;;;;23.48;19.90;;;3.30;94.50;;;;;;5078303;28;20037;-56
2020/12/31 00:33:12;;;;;;;22.35;19.17;;;3.20;94.50;;;;;;5079282;28;20085;-56
2020/12/31 00:35:38;;;;;;;22.92;19.13;;;3.20;94.40;;;;;;5080172;28;20051;-56
2020/12/31 00:38:04;;;;;;;23.25;18.67;;;3.20;94.50;;;;;;5080361;28;20123;-56
2020/12/31 00:40:29;;;;;;;24.13;19.35;;;3.30;94.50;;;;;;5082259;28;20093;-56
2020/12/31 00:42:55;;;;;;;22.00;18.25;;;3.30;94.40;;;;;;5078183;28;20530;-56
2020/12/31 00:45:21;;;;;;;26.50;18.67;;;3.20;94.40;;;;;;5075688;28;20040;-56
2020/12/31 00:47:47;;;;;;;25.58;19.35;;;3.30;94.40;;;;;;5078101;28;20033;-56
2020/12/31 00:50:12;;;;;;;22.80;18.50;;;3.30;94.40;;;;;;5077708;28;20047;-56
2020/12/31 00:52:38;;;;;;;20.63;18.42;;;3.30;94.40;;;;;;5077916;28;20067;-56
2020/12/31 00:55:04;;;;;;;19.92;17.58;;;3.30;94.40;;;;;;5080846;28;20135;-56
2020/12/31 00:57:30;;;;;;;20.20;17.63;;;3.30;94.30;;;;;;5075585;28;20502;-56
2020/12/31 00:59:55;;;;;;;20.35;18.25;;;3.30;94.30;;;;;;5079598;28;20041;-56
2020/12/31 01:02:21;;;;;;;19.30;17.23;;;3.30;94.30;;;;;;5076404;28;20428;-56
2020/12/31 01:04:46;;;;;;;20.75;18.55;;;3.30;94.20;;;;;;5082473;28;20081;-56
2020/12/31 01:07:15;;;;;;;20.33;17.75;;;3.30;94.20;;;;;;5081450;28;20040;-56
2020/12/31 01:09:41;;;;;;;19.25;17.13;;;3.30;94.20;;;;;;5078384;28;20032;-56
2020/12/31 01:12:07;;;;;;;19.13;16.65;;;3.30;94.20;;;;;;5082408;28;20044;-56
2020/12/31 01:14:32;;;;;;;19.20;16.63;;;3.30;94.20;;;;;;5076520;28;20081;-56
2020/12/31 01:16:58;;;;;;;19.48;17.10;;;3.30;94.20;;;;;;5080100;28;20051;-56
2020/12/31 01:19:23;;;;;;;18.20;15.90;;;3.30;94.20;;;;;;5085144;28;20071;-56
2020/12/31 01:21:49;;;;;;;20.00;16.50;;;3.40;94.20;;;;;;5079476;28;20132;-56
2020/12/31 01:24:15;;;;;;;18.15;15.10;;;3.30;94.20;;;;;;5081974;28;20038;-56
2020/12/31 01:26:40;;;;;;;22.38;16.83;;;3.30;94.10;;;;;;5082221;28;20094;-56
2020/12/31 01:29:06;;;;;;;19.88;16.25;;;3.30;94.10;;;;;;5081637;28;20036;-56
2020/12/31 01:31:32;;;;;;;17.42;15.70;;;3.40;94.20;;;;;;5075155;28;20036;-56
2020/12/31 01:33:58;;;;;;;17.58;15.70;;;3.30;94.10;;;;;;5076029;28;20119;-56
2020/12/31 01:36:24;;;;;;;18.42;16.45;;;3.30;94.10;;;;;;5079461;28;20375;-56
2020/12/31 01:38:50;;;;;;;17.58;15.65;;;3.30;94.20;;;;;;5077025;28;20032;-56
2020/12/31 01:41:25;;;;;;;17.35;15.63;;;3.40;94.20;;;;;;5078011;28;20518;-56
2020/12/31 01:44:05;;;;;;;17.92;16.05;;;3.30;94.20;;;;;;5082455;28;20038;-56
2020/12/31 01:46:35;;;;;;;20.70;15.75;;;3.40;94.30;;;;;;5080331;28;20075;-56
2020/12/31 01:49:03;;;;;;;18.08;15.80;;;3.40;94.20;;;;;;5077100;28;20037;-56
2020/12/31 01:51:29;;;;;;;17.65;15.02;;;3.40;94.10;;;;;;5077586;28;20036;-56
2020/12/31 01:53:56;;;;;;;16.50;14.77;;;3.40;94.10;;;;;;5080509;28;20040;-56
2020/12/31 01:56:30;;;;;;;16.30;14.38;;;3.40;94.20;;;;;;5081359;28;20475;-56
2020/12/31 01:58:56;;;;;;;16.50;14.80;;;3.40;94.10;;;;;;5079875;28;20090;-56
2020/12/31 02:01:23;;;;;;;15.82;14.20;;;3.40;94.10;;;;;;5081688;28;20090;-56
2020/12/31 02:03:50;;;;;;;19.20;15.55;;;3.40;94.10;;;;;;5076111;28;20037;-56
2020/12/31 02:06:16;;;;;;;17.33;15.52;;;3.40;94.00;;;;;;5078753;28;20040;-56
2020/12/31 02:08:44;;;;;;;16.50;14.82;;;3.40;94.00;;;;;;5079135;28;20036;-56
2020/12/31 02:11:13;;;;;;;17.27;15.48;;;3.40;94.00;;;;;;5079296;28;20101;-56
2020/12/31 02:13:39;;;;;;;17.02;15.00;;;3.30;94.00;;;;;;5078131;28;20049;-56
2020/12/31 02:16:08;;;;;;;17.10;15.35;;;3.30;94.00;;;;;;5079408;28;20052;-56
2020/12/31 02:18:34;;;;;;;17.83;16.02;;;3.30;94.00;;;;;;5075026;28;20053;-56
2020/12/31 02:21:01;;;;;;;17.35;15.57;;;3.40;94.00;;;;;;5081955;28;20047;-56
2020/12/31 02:23:27;;;;;;;19.65;15.45;;;3.30;94.00;;;;;;5083950;28;20127;-56
2020/12/31 02:25:53;;;;;;;18.73;16.83;;;3.30;94.00;;;;;;5082349;28;20051;-56
2020/12/31 02:28:19;;;;;;;18.25;16.33;;;3.20;94.00;;;;;;5077438;28;20663;-56
2020/12/31 02:30:44;;;;;;;20.00;16.23;;;3.20;94.10;;;;;;5075000;28;20036;-56
2020/12/31 02:33:10;;;;;;;17.60;15.82;;;3.20;94.10;;;;;;5077191;28;20056;-56
2020/12/31 02:35:35;;;;;;;17.65;15.85;;;3.20;94.10;;;;;;5080739;28;20908;-56
2020/12/31 02:38:01;;;;;;;18.25;16.35;;;3.20;94.10;;;;;;5079199;28;20037;-56
2020/12/31 02:40:27;;;;;;;20.98;16.92;;;3.10;94.10;;;;;;5079718;28;20064;-56
2020/12/31 02:42:52;;;;;;;20.17;16.65;;;3.10;94.20;;;;;;5082044;28;20046;-56
2020/12/31 02:45:18;;;;;;;20.80;17.10;;;3.10;94.20;;;;;;5083208;28;20128;-56
2020/12/31 02:47:44;;;;;;;19.85;17.83;;;3.10;94.20;;;;;;5077374;28;20036;-56
2020/12/31 02:50:09;;;;;;;19.05;17.02;;;3.10;94.20;;;;;;5080481;28;20036;-56
2020/12/31 02:52:35;;;;;;;19.40;17.10;;;3.10;94.20;;;;;;5076225;28;20106;-56
2020/12/31 02:55:01;;;;;;;21.25;18.23;;;3.00;94.30;;;;;;5078040;28;20056;-56
2020/12/31 02:57:26;;;;;;;19.58;16.98;;;3.10;94.30;;;;;;5075691;28;20062;-56
2020/12/31 02:59:52;;;;;;;21.42;18.02;;;3.00;94.30;;;;;;5079300;28;20061;-56
2020/12/31 03:02:18;;;;;;;22.35;17.65;;;3.10;94.40;;;;;;5074187;28;20036;-56
2020/12/31 03:04:43;;;;;;;23.17;18.58;;;3.10;94.40;;;;;;5084987;28;20033;-56
2020/12/31 03:07:09;;;;;;;23.10;19.10;;;3.00;94.40;;;;;;5082529;28;20482;-56
2020/12/31 03:09:35;;;;;;;23.13;19.02;;;3.00;94.40;;;;;;5083289;28;20045;-56
2020/12/31 03:12:00;;;;;;;21.50;19.17;;;3.00;94.40;;;;;;5077157;28;20082;-56
2020/12/31 03:14:26;;;;;;;22.88;19.83;;;3.00;94.40;;;;;;5083115;28;20493;-56
2020/12/31 03:16:52;;;;;;;21.67;18.92;;;3.00;94.40;;;;;;5079814;28;20127;-56
2020/12/31 03:19:17;;;;;;;22.70;19.70;;;3.00;94.40;;;;;;5081010;28;20055;-56
2020/12/31 03:21:43;;;;;;;21.98;18.63;;;3.00;94.50;;;;;;5083097;28;20036;-56
2020/12/31 03:24:08;;;;;;;22.92;20.15;;;3.00;94.50;;;;;;5080596;28;20447;-56
2020/12/31 03:26:34;;;;;;;22.02;19.40;;;3.00;94.50;;;;;;5078780;28;20040;-56
2020/12/31 03:29:00;;;;;;;21.77;19.45;;;3.00;94.60;;;;;;5080074;28;20036;-56
2020/12/31 03:31:25;;;;;;;21.80;18.73;;;3.00;94.60;;;;;;5083678;28;20040;-56
2020/12/31 03:33:51;;;;;;;26.02;20.50;;;3.10;94.70;;;;;;5082591;28;20505;-56
2020/12/31 03:36:16;;;;;;;25.15;19.65;;;3.10;94.70;;;;;;5079092;28;20040;-56
2020/12/31 03:38:42;;;;;;;21.98;19.40;;;3.10;94.70;;;;;;5075647;28;20055;-56
2020/12/31 03:41:08;;;;;;;27.33;20.10;;;3.10;94.70;;;;;;5080280;28;20479;-56
2020/12/31 03:43:34;;;;;;;21.92;19.20;;;3.20;94.80;;;;;;5077096;28;20121;-56
2020/12/31 03:46:00;;;;;;;21.20;18.85;;;3.10;94.80;;;;;;5079559;28;20036;-56
2020/12/31 03:48:26;;;;;;;19.30;17.27;;;3.10;94.80;;;;;;5080048;28;20051;-56
2020/12/31 03:50:52;;;;;;;20.85;18.60;;;3.20;94.80;;;;;;5079438;28;20060;-56
2020/12/31 03:53:17;;;;;;;21.00;18.17;;;3.20;94.80;;;;;;5082619;28;20115;-56
2020/12/31 03:55:43;;;;;;;22.30;19.33;;;3.20;94.80;;;;;;5078980;28;20418;-56
2020/12/31 03:58:08;;;;;;;19.05;17.15;;;3.20;94.80;;;;;;5078848;28;20032;-56
2020/12/31 04:00:34;;;;;;;18.35;16.45;;;3.20;94.80;;;;;;5077688;28;20036;-56
2020/12/31 04:03:00;;;;;;;19.73;16.73;;;3.20;94.70;;;;;;5083734;28;20501;-56
2020/12/31 04:05:25;;;;;;;16.90;14.77;;;3.30;94.70;;;;;;5085051;28;20101;-56
2020/12/31 04:07:51;;;;;;;18.85;15.60;;;3.30;94.70;;;;;;5081864;28;20400;-56
2020/12/31 04:10:17;;;;;;;18.20;16.27;;;3.30;94.60;;;;;;5081927;28;20043;-56
2020/12/31 04:12:44;;;;;;;17.90;16.00;;;3.30;94.60;;;;;;5084666;28;20036;-56
2020/12/31 04:15:09;;;;;;;20.88;16.38;;;3.30;94.50;;;;;;5086093;28;20036;-56
2020/12/31 04:17:35;;;;;;;17.70;15.80;;;3.30;94.50;;;;;;5085120;28;20036;-56
2020/12/31 04:20:01;;;;;;;16.45;14.75;;;3.30;94.50;;;;;;5081851;28;20043;-56
2020/12/31 04:22:28;;;;;;;16.83;15.02;;;3.30;94.50;;;;;;5086578;28;20094;-56
2020/12/31 04:24:53;;;;;;;16.65;13.73;;;3.30;94.50;;;;;;5080404;28;20048;-56
2020/12/31 04:27:20;;;;;;;16.77;15.05;;;3.30;94.40;;;;;;5085606;28;20660;-56
2020/12/31 04:29:45;;;;;;;17.38;15.35;;;3.20;94.40;;;;;;5075997;28;20041;-56
2020/12/31 04:32:11;;;;;;;17.80;15.07;;;3.20;94.40;;;;;;5085538;28;20033;-56
2020/12/31 04:34:37;;;;;;;17.23;15.43;;;3.20;94.40;;;;;;5086686;28;20040;-56
2020/12/31 04:37:04;;;;;;;19.10;14.77;;;3.20;94.40;;;;;;5085711;28;20544;-56
2020/12/31 04:39:29;;;;;;;17.33;15.63;;;3.20;94.40;;;;;;5079512;28;20402;-56
2020/12/31 04:41:58;;;;;;;18.00;15.52;;;3.10;94.40;;;;;;5087171;28;20040;-56
2020/12/31 04:44:24;;;;;;;16.38;14.63;;;3.20;94.50;;;;;;5081460;28;20043;-56
2020/12/31 04:46:54;;;;;;;16.75;14.77;;;3.10;94.50;;;;;;5080304;28;20041;-56
2020/12/31 04:49:26;;;;;;;17.55;15.38;;;3.20;94.50;;;;;;5085591;28;20115;-56
2020/12/31 04:51:54;;;;;;;17.40;15.30;;;3.20;94.50;;;;;;5085354;28;20036;-56
2020/12/31 04:54:20;;;;;;;16.83;14.98;;;3.20;94.60;;;;;;5081246;28;20043;-56
2020/12/31 04:56:46;;;;;;;18.15;14.95;;;3.20;94.60;;;;;;5076828;28;20033;-56
2020/12/31 04:59:12;;;;;;;16.13;14.43;;;3.10;94.50;;;;;;5080856;28;20429;-56
2020/12/31 05:01:41;;;;;;;18.95;15.55;;;3.20;94.60;;;;;;5080813;28;20070;-56
2020/12/31 05:04:07;;;;;;;17.02;14.63;;;3.20;94.60;;;;;;5082013;28;20043;-56
2020/12/31 05:06:36;;;;;;;16.42;14.63;;;3.10;94.60;;;;;;5084501;28;20036;-56
2020/12/31 05:09:13;;;;;;;16.30;14.55;;;3.20;94.60;;;;;;5080706;28;20040;-56
2020/12/31 05:11:52;;;;;;;19.77;14.82;;;3.20;94.60;;;;;;5079078;28;20044;-56
2020/12/31 05:14:28;;;;;;;16.25;14.55;;;3.20;94.60;;;;;;5075682;28;20036;-56
2020/12/31 05:16:54;;;;;;;;;;;3.20;94.60;;;;;;5082666;28;20042;-56
2020/12/31 05:19:21;;;;;;;17.15;14.32;;;3.20;94.60;;;;;;5077889;28;19920;-56
2020/12/31 05:21:47;;;;;;;17.10;15.30;;;3.20;94.60;;;;;;5082304;28;20032;-56
2020/12/31 05:24:13;;;;;;;17.55;15.75;;;3.20;94.60;;;;;;5080744;28;20059;-56
2020/12/31 05:26:39;;;;;;;16.70;15.13;;;3.20;94.60;;;;;;5080757;28;20044;-56
2020/12/31 05:29:05;;;;;;;19.40;15.15;;;3.20;94.50;;;;;;5082552;28;20051;-56
2020/12/31 05:31:51;;;;;;;17.38;15.50;;;3.20;94.60;;;;;;5079794;28;20368;-56
2020/12/31 05:34:32;;;;;;;17.83;15.60;;;3.20;94.60;;;;;;5080600;28;20048;-56
2020/12/31 05:37:14;;;;;;;17.00;15.30;;;3.20;94.60;;;;;;5082262;28;20498;-56
2020/12/31 05:40:08;;;;;;;18.20;15.02;;;3.20;94.60;;;;;;5083387;28;20068;-56
2020/12/31 05:42:36;;;;;;;19.38;16.05;;;3.30;94.60;;;;;;5077068;28;21025;-56
2020/12/31 05:45:08;;;;;;;16.95;15.15;;;3.30;94.50;;;;;;5082375;28;20032;-56
2020/12/31 05:47:36;;;;;;;16.98;15.18;;;3.30;94.50;;;;;;5078121;28;20032;-56
2020/12/31 05:50:14;;;;;;;16.50;14.85;;;3.30;94.40;;;;;;5081215;28;20066;-56
2020/12/31 05:52:40;;;;;;;17.23;15.32;;;3.30;94.30;;;;;;5083039;28;20044;-56
2020/12/31 05:55:08;;;;;;;15.77;14.07;;;3.40;94.40;;;;;;5082041;28;20037;-56
2020/12/31 05:57:54;;;;;;;16.45;14.80;;;3.40;94.40;;;;;;5078842;28;20047;-56
2020/12/31 06:00:23;;;;;;;16.70;14.93;;;3.40;94.40;;;;;;5081808;28;20102;-56
2020/12/31 06:02:53;;;;;;;16.15;14.45;;;3.40;94.30;;;;;;5079230;28;20336;-56
2020/12/31 06:05:20;;;;;;;16.48;14.40;;;3.40;94.30;;;;;;5083532;28;20039;-56
2020/12/31 06:07:50;;;;;;;16.48;14.77;;;3.40;94.30;;;;;;5081319;28;20431;-56
2020/12/31 06:10:21;;;;;;;16.80;15.07;;;3.50;94.30;;;;;;5080979;28;20033;-56
2020/12/31 06:12:49;;;;;;;16.80;15.10;;;3.40;94.30;;;;;;5078508;28;20061;-56
2020/12/31 06:15:22;;;;;;;17.77;16.08;;;3.50;94.30;;;;;;5080482;28;20456;-56
2020/12/31 06:17:49;;;;;;;17.13;15.30;;;3.50;94.30;;;;;;5077175;28;20116;-56
2020/12/31 06:20:20;;;;;;;17.55;15.48;;;3.50;94.30;;;;;;5076564;28;20041;-56
2020/12/31 06:23:05;;;;;;;17.55;15.85;;;3.50;94.30;;;;;;5076005;28;20446;-55
2020/12/31 06:25:35;;;;;;;17.63;15.75;;;3.50;94.20;;;;;;5082580;28;20063;-56
2020/12/31 06:28:10;;;;;;;18.13;16.23;;;3.50;94.20;;;;;;5075025;28;20044;-56
2020/12/31 06:30:40;;;;;;;17.17;15.20;;;3.50;94.20;;;;;;5080250;28;20040;-56
2020/12/31 06:33:26;;;;;;;16.98;15.35;;;3.50;94.20;;;;;;5078557;28;20074;-56
2020/12/31 06:36:03;;;;;;;18.05;16.17;;;3.50;94.10;;;;;;5076066;28;20059;-56
2020/12/31 06:38:39;;;;;;;16.05;14.35;;;3.50;94.20;;;;;;5079047;28;20040;-56
2020/12/31 06:41:30;;;;;;;15.23;13.73;;;3.60;94.20;;;;;;5079462;28;20040;-56
2020/12/31 06:44:06;;;;;;;15.75;13.98;;;3.50;94.00;;;;;;5080948;28;20055;-56
2020/12/31 06:46:45;;;;;;;15.63;14.02;;;3.50;94.00;;;;;;5076488;28;20071;-56
2020/12/31 06:49:12;;;;;;;15.35;13.73;;;3.50;94.10;;;;;;5085228;28;20036;-56
2020/12/31 06:51:38;;;;;;;15.77;14.18;;;3.50;94.10;;;;;;5083894;28;20039;-56
2020/12/31 06:54:04;;;;;;;14.35;12.85;;;3.50;93.90;;;;;;5076849;28;20040;-56
2020/12/31 06:56:49;;;;;;;15.05;13.52;;;3.50;93.90;;;;;;5080247;28;20119;-56
2020/12/31 06:59:35;;;;;;;14.90;13.40;;;3.60;93.90;;;;;;5082134;28;20043;-56
2020/12/31 07:02:10;;;;;;;15.57;14.02;;;3.60;93.90;;;;;;5074710;28;20040;-56
2020/12/31 07:04:39;;;;;;;14.57;13.07;;;3.50;93.90;;;;;;5074664;28;20032;-56
2020/12/31 07:07:20;;;;;;;13.98;12.57;;;3.60;93.90;;;;;;5081390;28;20057;-56
2020/12/31 07:09:57;;;;;;;13.52;12.23;;;3.60;93.90;;;;;;5079763;28;20139;-56
2020/12/31 07:12:35;;;;;;;15.15;13.63;;;3.50;93.90;;;;;;5078066;28;20071;-56
2020/12/31 07:15:05;;;;;;;14.23;12.73;;;3.60;94.00;;;;;;5081357;28;20102;-56
2020/12/31 07:17:43;;;;;;;14.27;12.88;;;3.60;94.00;;;;;;5080298;28;20123;-56
2020/12/31 07:20:11;;;;;;;15.00;13.38;;;3.60;94.10;;;;;;5075873;28;20045;-56
2020/12/31 07:22:38;;;;;;;14.43;13.02;;;3.50;94.00;;;;;;5075514;28;20115;-56
2020/12/31 07:25:15;;;;;;;15.13;13.45;;;3.60;94.10;;;;;;5077651;28;20064;-56
2020/12/31 07:27:42;;;;;;;14.63;13.13;;;3.60;94.10;;;;;;5074268;28;20480;-56
2020/12/31 07:30:08;;;;;;;15.27;13.65;;;3.60;94.10;;;;;;5075567;28;20138;-56
2020/12/31 07:32:45;;;;;;;15.48;13.80;;;3.50;94.00;;;;;;5075866;28;20040;-56
2020/12/31 07:35:25;;;;;;;14.25;12.75;;;3.60;94.10;;;;;;5079455;28;20036;-56
2020/12/31 07:38:12;;;;;;;14.45;13.05;;;3.60;94.10;;;;;;5082061;28;20032;-56
2020/12/31 07:40:47;;;;;;;16.00;14.25;;;3.60;94.10;;;;;;5079958;28;20032;-56
2020/12/31 07:43:21;;;;;;;16.08;14.38;;;3.60;94.20;;;;;;5081490;28;20123;-56
2020/12/31 07:45:50;;;;;;;17.38;14.98;;;3.60;94.10;;;;;;5082336;28;20097;-56
2020/12/31 07:48:16;;;;;;;16.25;14.50;;;3.60;94.20;;;;;;5081896;28;20502;-57
2020/12/31 07:50:42;;;;;;;14.82;13.32;;;3.60;94.10;;;;;;5078125;28;20040;-56
2020/12/31 07:53:09;;;;;;;16.23;14.52;;;3.60;94.10;;;;;;5085533;28;20048;-56
2020/12/31 07:55:35;;;;;;;16.67;14.98;;;3.60;94.10;;;;;;5088658;28;20114;-56
2020/12/31 07:58:02;;;;;;;16.73;14.98;;;3.60;94.10;;;;;;5087878;28;20064;-56
2020/12/31 08:00:28;;;;;;;18.50;14.60;;;3.60;94.10;;;;;;5083173;28;20032;-56
2020/12/31 08:02:55;;;;;;;16.40;14.70;;;3.60;94.10;;;;;;5080812;28;20093;-56
2020/12/31 08:05:25;;;;;;;15.63;14.13;;;3.60;94.00;;;;;;5082293;28;20044;-56
2020/12/31 08:07:55;;;;;;;17.20;14.50;;;3.60;94.00;;;;;;5084400;28;20486;-56
2020/12/31 08:10:23;;;;;;;16.75;15.02;;;3.60;94.00;;;;;;5085254;28;20028;-56
2020/12/31 08:12:59;;;;;;;16.75;14.20;;;3.60;94.00;;;;;;5082994;28;20043;-56
2020/12/31 08:15:26;;;;;;;16.25;14.50;;;3.60;93.90;;;;;;5088357;28;20059;-56
2020/12/31 08:17:53;;;;;;;19.88;15.30;;;3.60;93.80;;;;;;5080744;28;20064;-56
2020/12/31 08:20:21;;;;;;;17.63;14.82;;;3.60;93.70;;;;;;5085716;28;20043;-56
2020/12/31 08:22:56;;;;;;;22.05;15.95;;;3.60;93.70;;;;;;5081825;28;20063;-56
2020/12/31 08:25:25;;;;;;;17.55;14.75;;;3.60;93.70;;;;;;5083551;28;20406;-56
2020/12/31 08:27:54;;;;;;;17.02;15.23;;;3.60;93.80;;;;;;5082534;28;20047;-56
2020/12/31 08:30:20;;;;;;;19.15;15.45;;;3.50;93.70;;;;;;5085000;28;20093;-56
2020/12/31 08:32:53;;;;;;;19.02;15.82;;;3.50;93.80;;;;;;5087283;28;20054;-56
2020/12/31 08:35:29;;;;;;;18.73;16.73;;;3.60;93.90;;;;;;5084785;28;20039;-56
2020/12/31 08:37:58;;;;;;;;;;;3.60;93.90;;;;;;5082148;28;20032;-56
2020/12/31 08:40:24;;;;;;;19.17;15.35;;;3.50;93.90;;;;;;5083014;28;20522;-56
2020/12/31 08:42:53;;;;;;;17.10;15.30;;;3.60;94.00;;;;;;5083894;28;20033;-56
2020/12/31 08:45:26;;;;;;;16.58;14.88;;;3.60;94.20;;;;;;5082426;28;20114;-56
2020/12/31 08:47:52;;;;;;;18.42;14.90;;;3.60;93.90;;;;;;5082580;28;20493;-56
2020/12/31 08:50:18;;;;;;;18.73;15.48;;;3.60;93.90;;;;;;5081662;28;20037;-56
2020/12/31 08:52:44;;;;;;;18.25;15.40;;;3.70;93.90;;;;;;5089265;28;20404;-56
2020/12/31 08:55:11;;;;;;;17.60;15.70;;;3.60;93.90;;;;;;5081529;28;20032;-56
2020/12/31 08:57:38;;;;;;;19.00;15.98;;;3.60;93.80;;;;;;5083491;28;20449;-56
2020/12/31 09:00:05;;;;;;;17.50;15.63;;;3.60;93.80;;;;;;5085375;28;20045;-56
2020/12/31 09:02:31;;;;;;;17.23;15.43;;;3.60;93.90;;;;;;5086489;28;20036;-56
2020/12/31 09:05:16;;;;;;;15.93;14.27;;;3.60;93.90;;;;;;5087608;28;20067;-56
2020/12/31 09:07:42;;;;;;;17.05;15.15;;;3.70;93.80;;;;;;5081487;28;20044;-56
2020/12/31 09:10:15;;;;;;;15.65;14.05;;;3.70;93.90;;;;;;5083741;28;20115;-56
2020/12/31 09:12:41;;;;;;;15.85;14.15;;;3.70;93.70;;;;;;5089391;28;20038;-56
2020/12/31 09:15:07;;;;;;;15.80;14.05;;;3.70;93.60;;;;;;5078143;28;20052;-56
2020/12/31 09:17:34;;;;;;;18.98;14.93;;;3.70;93.60;;;;;;5080084;28;20109;-56
2020/12/31 09:20:00;;;;;;;14.55;12.73;;;3.70;93.60;;;;;;5083939;28;20060;-56
2020/12/31 09:22:25;;;;;;;13.80;12.32;;;3.70;93.50;;;;;;5078866;28;20075;-56
2020/12/31 09:24:52;;;;;;;16.63;13.93;;;3.70;93.50;;;;;;5083245;28;20040;-56
2020/12/31 09:27:25;;;;;;;14.30;12.73;;;3.80;93.50;;;;;;5079926;28;20040;-56
2020/12/31 09:30:00;;;;;;;15.50;12.50;;;3.80;93.40;;;;;;5082838;28;20036;-56
2020/12/31 09:32:27;;;;;;;12.73;11.40;;;3.80;93.40;;;;;;5083536;28;20094;-56
2020/12/31 09:34:53;;;;;;;14.95;12.85;;;3.80;93.20;;;;;;5085670;28;20395;-56
2020/12/31 09:37:19;;;;;;;15.23;12.63;;;3.80;93.20;;;;;;5084978;28;20036;-56
2020/12/31 09:39:45;;;;;;;14.05;12.55;;;3.80;93.20;;;;;;5077250;28;20105;-56
2020/12/31 09:42:11;;;;;;;14.18;11.30;;;3.80;93.10;;;;;;5081802;28;20097;-56
2020/12/31 09:44:37;;;;;;;13.55;12.15;;;3.90;93.00;;;;;;5083886;28;20044;-56
2020/12/31 09:47:04;;;;;;;12.70;11.45;;;3.90;93.00;;;;;;5086392;28;20032;-57
2020/12/31 09:49:29;;;;;;;14.70;11.80;;;4.00;92.80;;;;;;5082906;28;20074;-56
2020/12/31 09:51:56;;;;;;;14.02;11.98;;;4.00;92.80;;;;;;5082068;28;20040;-56
2020/12/31 09:54:21;;;;;;;12.32;11.05;;;4.00;92.60;;;;;;5081578;28;20093;-56
2020/12/31 09:56:47;;;;;;;12.77;11.57;;;4.00;92.60;;;;;;5084190;28;20424;-56
2020/12/31 09:59:13;;;;;;;13.05;11.63;;;4.10;92.80;;;;;;5083538;28;20087;-56
2020/12/31 10:01:39;;;;;;;12.88;11.68;;;4.00;92.40;;;;;;5080361;28;20559;-56
2020/12/31 10:04:05;;;;;;;12.60;11.30;;;4.10;92.60;;;;;;5082820;28;20064;-56
2020/12/31 10:06:31;;;;;;;13.10;11.88;;;4.10;92.40;;;;;;5083439;28;20044;-56
2020/12/31 10:08:56;;;;;;;11.80;10.57;;;4.20;92.50;;;;;;5082466;28;20123;-56
2020/12/31 10:11:22;;;;;;;11.98;10.88;;;4.20;92.30;;;;;;5084549;28;20043;-56
2020/12/31 10:13:48;;;;;;;12.15;10.85;;;4.20;92.10;;;;;;5085468;28;20040;-56
2020/12/31 10:16:13;;;;;;;12.73;11.43;;;4.20;92.10;;;;;;5086333;28;20032;-56
2020/12/31 10:18:39;;;;;;;11.93;10.70;;;4.10;92.10;;;;;;5086481;28;20052;-56
2020/12/31 10:21:05;;;;;;;12.77;10.98;;;4.20;92.00;;;;;;5081380;28;20102;-56
2020/12/31 10:23:31;;;;;;;11.68;10.48;;;4.10;92.10;;;;;;5081790;28;20039;-56
2020/12/31 10:25:57;;;;;;;12.52;11.23;;;4.10;91.90;;;;;;5083002;28;20533;-56
2020/12/31 10:28:22;;;;;;;11.45;10.25;;;4.20;91.90;;;;;;5081531;28;20104;-56
2020/12/31 10:30:49;;;;;;;11.25;10.15;;;4.10;91.80;;;;;;5080897;28;20042;-56
2020/12/31 10:33:15;;;;;;;10.70;9.63;;;4.20;91.70;;;;;;5078812;28;20094;-56
2020/12/31 10:35:41;;;;;;;11.20;10.10;;;4.20;91.50;;;;;;5077593;28;20044;-56
2020/12/31 10:38:07;;;;;;;10.50;9.38;;;4.10;91.60;;;;;;5080483;28;20089;-56
2020/12/31 10:40:33;;;;;;;10.18;9.18;;;4.10;91.50;;;;;;5083233;28;20081;-56
2020/12/31 10:42:59;;;;;;;11.77;10.55;;;4.10;91.60;;;;;;5080826;28;20149;-56
2020/12/31 10:45:24;;;;;;;10.73;9.65;;;4.10;91.80;;;;;;5078202;28;20451;-56
2020/12/31 10:47:50;;;;;;;9.27;8.25;;;4.20;92.10;;;;;;5087282;28;20449;-56
2020/12/31 10:50:16;;;;;;;8.57;7.68;;;4.20;92.10;;;;;;5080753;28;20078;-56
2020/12/31 10:52:41;;;;;;;7.72;7.03;;;4.20;91.90;;;;;;5081197;28;20502;-56
2020/12/31 10:55:07;;;;;;;7.78;7.07;;;4.20;91.60;;;;;;5077213;28;20085;-56
2020/12/31 10:57:33;;;;;;;9.95;7.82;;;4.20;91.50;;;;;;5077571;28;20033;-56
2020/12/31 10:59:58;;;;;;;9.18;8.27;;;4.30;91.50;;;;;;5084830;28;20028;-56
2020/12/31 11:02:24;;;;;;;8.68;7.88;;;4.30;91.60;;;;;;5081150;28;20287;-56
2020/12/31 11:04:50;;;;;;;8.52;7.75;;;4.40;91.60;;;;;;5083396;28;20048;-56
2020/12/31 11:07:16;;;;;;;8.80;7.95;;;4.50;91.60;;;;;;5083885;28;20537;-56
2020/12/31 11:09:41;;;;;;;8.88;8.05;;;4.50;91.70;;;;;;5077032;28;20403;-56
2020/12/31 11:12:07;;;;;;;8.93;7.95;;;4.60;91.50;;;;;;5073617;28;20443;-56
2020/12/31 11:14:33;;;;;;;9.35;8.48;;;4.70;91.30;;;;;;5080197;28;20525;-56
2020/12/31 11:16:58;;;;;;;19.48;9.38;;;4.70;91.10;;;;;;5079582;28;20478;-56
2020/12/31 11:19:26;;;;;;;13.80;8.82;;;4.70;91.20;;;;;;5076788;28;20261;-56
2020/12/31 11:21:51;;;;;;;9.63;8.15;;;4.70;91.10;;;;;;5080281;28;20054;-57
2020/12/31 11:24:18;;;;;;;11.25;8.75;;;4.80;91.10;;;;;;5081534;28;20965;-56
2020/12/31 11:26:43;;;;;;;9.68;8.70;;;4.80;91.20;;;;;;5082248;28;20032;-56
2020/12/31 11:29:09;;;;;;;9.90;8.98;;;4.80;90.80;;;;;;5081483;28;20525;-56
2020/12/31 11:31:35;;;;;;;9.27;8.35;;;4.80;90.80;;;;;;5083829;28;20101;-56
2020/12/31 11:34:01;;;;;;;9.85;8.88;;;4.70;90.60;;;;;;5081323;28;20475;-56
2020/12/31 11:36:27;;;;;;;8.52;7.72;;;4.70;91.10;;;;;;5079452;28;20494;-56
2020/12/31 11:38:54;;;;;;;9.48;8.57;;;4.70;91.10;;;;;;5081586;28;20119;-57
2020/12/31 11:41:20;;;;;;;9.55;8.65;;;4.70;91.10;;;;;;5075393;28;20399;-56
2020/12/31 11:43:46;;;;;;;10.25;9.30;;;4.70;90.80;;;;;;5076166;28;20047;-56
2020/12/31 11:46:12;;;;;;;10.10;9.10;;;4.70;91.00;;;;;;5081865;28;20032;-56
2020/12/31 11:48:38;;;;;;;10.85;9.75;;;4.70;91.40;;;;;;5083633;28;20036;-56
2020/12/31 11:51:08;;;;;;;11.60;10.50;;;4.70;91.20;;;;;;5080697;28;20040;-56
2020/12/31 11:53:34;;;;;;;13.15;10.48;;;4.60;91.10;;;;;;5079660;28;20047;-56
2020/12/31 11:56:00;;;;;;;13.15;11.85;;;4.70;91.40;;;;;;5075503;28;20041;-56
2020/12/31 11:58:27;;;;;;;14.55;12.35;;;4.70;91.50;;;;;;5077998;28;20127;-56
2020/12/31 12:00:53;;;;;;;13.00;11.38;;;4.70;91.60;;;;;;5078722;28;20037;-56
2020/12/31 12:03:19;;;;;;;14.50;12.63;;;4.80;91.80;;;;;;5080146;28;20043;-56
2020/12/31 12:05:45;;;;;;;16.33;13.30;;;4.80;91.80;;;;;;5076580;28;20051;-56
2020/12/31 12:08:10;;;;;;;14.13;12.70;;;4.80;91.90;;;;;;5079094;28;20042;-56
2020/12/31 12:10:36;;;;;;;15.52;13.15;;;4.90;91.80;;;;;;5076955;28;20040;-56
2020/12/31 12:13:02;;;;;;;14.50;12.70;;;5.00;91.70;;;;;;5081715;28;20505;-56
2020/12/31 12:15:28;;;;;;;13.52;12.25;;;5.10;91.80;;;;;;5077246;28;20449;-56
2020/12/31 12:17:53;;;;;;;13.23;11.98;;;5.20;91.30;;;;;;5077351;28;20501;-56
2020/12/31 12:20:20;;;;;;;13.10;11.77;;;5.30;90.90;;;;;;5075552;28;20044;-56
2020/12/31 12:22:45;;;;;;;13.07;11.70;;;5.40;90.80;;;;;;5078822;28;20070;-56
2020/12/31 12:25:14;;;;;;;13.07;11.88;;;5.50;90.60;;;;;;5079895;28;20478;-56
2020/12/31 12:27:41;;;;;;;12.75;10.95;;;5.60;90.90;;;;;;5081861;28;20117;-56
2020/12/31 12:30:09;;;;;;;13.05;11.52;;;5.80;90.80;;;;;;5079680;28;20037;-56
2020/12/31 12:32:36;;;;;;;11.80;10.68;;;5.90;90.90;;;;;;5084434;28;20043;-56
2020/12/31 12:35:03;;;;;;;12.88;11.68;;;5.90;90.40;;;;;;5078394;28;20036;-56
2020/12/31 12:37:29;;;;;;;12.13;11.02;;;6.00;90.40;;;;;;5079741;28;20040;-56
2020/12/31 12:39:55;;;;;;;12.43;11.13;;;6.10;90.10;;;;;;5083170;28;20505;-57
2020/12/31 12:42:20;;;;;;;12.77;11.63;;;6.00;90.10;;;;;;5080529;28;20055;-56